Time;durP1;ratioP1;P1;durP2;ratioP2;P2;SDS_P1;SDS_P2;PMS_P1;PMS_P2;Temp;Humidity;BMP_temperature;BMP_pressure;BME280_temperature;BME280_humidity;BME280_pressure;Samples;Min_cycle;Max_cycle;Signal;HPM_P1;HPM_P2
2021/10/01 00:02:17;;;;;;;1999.90;385.93;;;12.90;99.90;;;;;;5083253;28;20468;-79
2021/10/01 00:04:45;;;;;;;1999.90;999.90;;;12.80;99.90;;;;;;5081697;28;20441;-79
2021/10/01 00:07:14;;;;;;;1999.90;878.37;;;12.90;99.90;;;;;;5100879;28;20309;-79
2021/10/01 00:09:43;;;;;;;1693.20;317.37;;;12.90;99.90;;;;;;5101376;28;20456;-79
2021/10/01 00:12:11;;;;;;;1999.90;539.50;;;12.90;99.90;;;;;;5101593;28;20432;-79
2021/10/01 00:14:39;;;;;;;1999.90;538.33;;;12.90;99.90;;;;;;5082331;28;20452;-80
2021/10/01 00:17:09;;;;;;;1999.90;499.50;;;12.90;99.90;;;;;;5081529;28;20443;-79
2021/10/01 00:19:38;;;;;;;1999.90;632.60;;;12.90;99.90;;;;;;5082626;28;20476;-79
2021/10/01 00:22:06;;;;;;;1999.90;611.53;;;12.90;99.90;;;;;;5101199;28;20555;-79
2021/10/01 00:24:36;;;;;;;1999.90;566.57;;;12.80;99.90;;;;;;5084662;28;20503;-80
2021/10/01 00:27:08;;;;;;;1999.90;604.53;;;12.90;99.90;;;;;;5082579;28;20468;-79
2021/10/01 00:29:36;;;;;;;1999.90;648.37;;;12.80;99.90;;;;;;5082578;28;20476;-79
2021/10/01 00:32:05;;;;;;;1999.90;680.30;;;12.90;99.90;;;;;;5081969;28;20444;-79
2021/10/01 00:34:35;;;;;;;1999.90;631.57;;;12.80;99.90;;;;;;5082018;28;20448;-79
2021/10/01 00:37:04;;;;;;;1999.90;696.13;;;12.80;99.90;;;;;;5081486;28;20591;-79
2021/10/01 00:39:32;;;;;;;1999.90;608.43;;;12.80;99.90;;;;;;5081780;28;20539;-79
2021/10/01 00:42:01;;;;;;;1999.90;999.90;;;12.80;99.90;;;;;;5080761;28;20519;-79
2021/10/01 00:44:30;;;;;;;1999.90;908.33;;;12.90;99.90;;;;;;5099819;28;20713;-79
2021/10/01 00:46:58;;;;;;;1999.90;999.90;;;12.80;99.90;;;;;;5081832;28;20444;-79
2021/10/01 00:49:27;;;;;;;1999.90;684.70;;;12.80;99.90;;;;;;5081591;28;20248;-79
2021/10/01 00:51:56;;;;;;;1999.90;814.67;;;12.80;99.90;;;;;;5081226;28;20495;-79
2021/10/01 00:54:25;;;;;;;1999.90;715.47;;;12.80;99.90;;;;;;5080832;28;20444;-79
2021/10/01 00:56:53;;;;;;;1999.90;786.03;;;12.80;99.90;;;;;;5081012;28;20525;-79
2021/10/01 00:59:22;;;;;;;1999.90;838.57;;;12.80;99.90;;;;;;5082361;28;20519;-79
2021/10/01 01:01:50;;;;;;;1999.90;940.27;;;12.70;99.90;;;;;;5081482;28;20456;-79
2021/10/01 01:04:20;;;;;;;1999.90;762.67;;;12.70;99.90;;;;;;5081586;28;20452;-79
2021/10/01 01:06:55;;;;;;;1999.90;868.23;;;12.70;99.90;;;;;;5081157;28;20468;-79
2021/10/01 01:09:35;;;;;;;1999.90;962.67;;;12.70;99.90;;;;;;5081072;28;20440;-80
2021/10/01 01:12:15;;;;;;;1999.90;917.57;;;12.60;99.90;;;;;;5079862;28;20444;-79
2021/10/01 01:14:50;;;;;;;1999.90;872.50;;;12.70;99.90;;;;;;5081575;28;20436;-79
2021/10/01 01:17:22;;;;;;;1999.90;920.10;;;12.70;99.90;;;;;;5081304;28;20468;-79
2021/10/01 01:20:03;;;;;;;1999.90;883.33;;;12.70;99.90;;;;;;5081072;28;20432;-79
2021/10/01 01:22:39;;;;;;;1999.90;947.33;;;12.60;99.90;;;;;;5081520;28;20456;-79
2021/10/01 01:25:45;;;;;;;1939.65;811.10;;;12.60;99.90;;;;;;5080740;28;20444;-79
2021/10/01 01:28:29;;;;;;;1999.90;632.60;;;12.70;99.90;;;;;;5080999;28;20432;-79
2021/10/01 01:31:05;;;;;;;1999.90;999.90;;;12.70;99.90;;;;;;5080345;28;20814;-79
2021/10/01 01:33:39;;;;;;;1999.90;870.40;;;12.70;99.90;;;;;;5080984;28;20216;-79
2021/10/01 01:36:13;;;;;;;1999.90;629.13;;;12.70;99.90;;;;;;5081241;28;20979;-79
2021/10/01 01:38:48;;;;;;;1999.90;944.50;;;12.70;99.90;;;;;;5081069;28;20944;-79
2021/10/01 01:41:18;;;;;;;1999.90;995.90;;;12.60;99.90;;;;;;5080460;28;20436;-79
2021/10/01 01:43:48;;;;;;;1999.90;999.90;;;12.60;99.90;;;;;;5080468;28;20468;-79
2021/10/01 01:46:18;;;;;;;1999.90;999.90;;;12.60;99.90;;;;;;5080505;28;20464;-80
2021/10/01 01:48:49;;;;;;;1999.90;990.57;;;12.60;99.90;;;;;;5080508;28;20506;-79
2021/10/01 01:51:18;;;;;;;1999.90;999.90;;;12.60;99.90;;;;;;5080172;28;20467;-78
2021/10/01 01:53:48;;;;;;;1999.90;999.90;;;12.60;99.90;;;;;;5079805;28;20472;-79
2021/10/01 01:56:18;;;;;;;1999.90;999.90;;;12.50;99.90;;;;;;5080054;28;20517;-79
2021/10/01 01:58:47;;;;;;;1999.90;987.57;;;12.60;99.90;;;;;;5079984;28;20448;-79
2021/10/01 02:01:21;;;;;;;1999.90;999.90;;;12.50;99.90;;;;;;5080316;28;20796;-79
2021/10/01 02:04:09;;;;;;;1999.90;999.90;;;12.50;99.90;;;;;;5079777;28;20491;-79
2021/10/01 02:06:38;;;;;;;1999.90;999.90;;;12.50;99.90;;;;;;5079767;28;20468;-79
2021/10/01 02:09:07;;;;;;;1999.90;999.90;;;12.50;99.90;;;;;;5080968;28;20444;-79
2021/10/01 02:11:41;;;;;;;1999.90;884.87;;;12.60;99.90;;;;;;5082010;28;20228;-80
2021/10/01 02:14:16;;;;;;;1999.90;980.50;;;12.60;99.90;;;;;;5080826;28;20467;-79
2021/10/01 02:16:45;;;;;;;1999.90;950.70;;;12.60;99.90;;;;;;5098883;28;20237;-79
2021/10/01 02:19:17;;;;;;;1999.90;828.23;;;12.60;99.90;;;;;;5098218;28;20467;-79
2021/10/01 02:21:48;;;;;;;1999.90;999.90;;;12.60;99.90;;;;;;5078899;28;20470;-79
2021/10/01 02:24:18;;;;;;;1999.90;999.90;;;12.50;99.90;;;;;;5079859;28;21060;-78
2021/10/01 02:26:55;;;;;;;1999.90;999.90;;;12.50;99.90;;;;;;5080555;28;21002;-79
2021/10/01 02:29:27;;;;;;;1999.90;999.90;;;12.50;99.90;;;;;;5080268;28;20820;-79
2021/10/01 02:32:04;;;;;;;1999.90;999.90;;;12.50;99.90;;;;;;5080242;28;20463;-79
2021/10/01 02:34:39;;;;;;;1999.90;999.90;;;12.50;99.90;;;;;;5079557;28;20439;-79
2021/10/01 02:37:14;;;;;;;1999.90;999.90;;;12.50;99.90;;;;;;5080179;28;20517;-79
2021/10/01 02:39:45;;;;;;;1999.90;999.90;;;12.50;99.90;;;;;;5079851;28;20440;-79
2021/10/01 02:42:16;;;;;;;1999.90;999.90;;;12.50;99.90;;;;;;5079852;28;20908;-80
2021/10/01 02:44:46;;;;;;;1999.90;999.90;;;12.50;99.90;;;;;;5079763;28;20505;-79
2021/10/01 02:47:16;;;;;;;1999.90;999.90;;;12.50;99.90;;;;;;5079647;28;20559;-79
2021/10/01 02:49:47;;;;;;;1999.90;999.90;;;12.50;99.90;;;;;;5079626;28;20436;-80
2021/10/01 02:52:21;;;;;;;1999.90;999.90;;;12.50;99.90;;;;;;5079100;28;20912;-79
2021/10/01 02:55:00;;;;;;;1999.90;807.53;;;12.50;99.90;;;;;;5078981;28;20190;-79
2021/10/01 02:57:39;;;;;;;1999.90;999.90;;;12.50;99.90;;;;;;5079027;28;20467;-78
2021/10/01 03:00:09;;;;;;;1999.90;999.90;;;12.50;99.90;;;;;;5079617;28;20505;-79
2021/10/01 03:02:39;;;;;;;1999.90;999.90;;;12.50;99.90;;;;;;5079483;28;20452;-79
2021/10/01 03:05:12;;;;;;;1999.90;999.90;;;12.40;99.90;;;;;;5079660;28;21004;-79
2021/10/01 03:07:42;;;;;;;1999.90;999.90;;;12.40;99.90;;;;;;5079715;28;20975;-79
2021/10/01 03:10:13;;;;;;;1999.90;999.90;;;12.40;99.90;;;;;;5079870;28;20787;-79
2021/10/01 03:12:44;;;;;;;1999.90;999.90;;;12.40;99.90;;;;;;5079962;28;20444;-79
2021/10/01 03:15:13;;;;;;;1999.90;999.90;;;12.40;99.90;;;;;;5079364;28;20497;-79
2021/10/01 03:17:47;;;;;;;1999.90;999.90;;;12.40;99.90;;;;;;5079294;28;20436;-79
2021/10/01 03:20:17;;;;;;;1999.90;999.90;;;12.40;99.90;;;;;;5079330;28;20482;-79
2021/10/01 03:22:46;;;;;;;1999.90;999.90;;;12.40;99.90;;;;;;5078938;28;20455;-79
2021/10/01 03:25:14;;;;;;;1999.90;999.90;;;12.40;99.90;;;;;;5078890;28;20513;-78
2021/10/01 03:27:42;;;;;;;1999.90;999.90;;;12.40;99.90;;;;;;5078985;28;20797;-79
2021/10/01 03:30:11;;;;;;;1999.90;999.90;;;12.40;99.90;;;;;;5078772;28;20519;-79
2021/10/01 03:32:39;;;;;;;1999.90;999.90;;;12.40;99.90;;;;;;5078649;28;20526;-79
2021/10/01 03:35:10;;;;;;;1999.90;999.90;;;12.30;99.90;;;;;;5080590;28;20466;-79
2021/10/01 03:37:40;;;;;;;1999.90;999.90;;;12.30;99.90;;;;;;5081128;28;20494;-79
2021/10/01 03:40:11;;;;;;;1999.90;847.30;;;12.40;99.90;;;;;;5081964;28;20243;-79
2021/10/01 03:42:41;;;;;;;1999.90;938.33;;;12.40;99.90;;;;;;5081272;28;20487;-79
2021/10/01 03:45:15;;;;;;;1999.90;830.07;;;12.40;99.90;;;;;;5082306;28;20525;-79
2021/10/01 03:47:43;;;;;;;1999.90;799.40;;;12.40;99.90;;;;;;5082455;28;20790;-79
2021/10/01 03:50:12;;;;;;;1999.90;999.90;;;12.40;99.90;;;;;;5082234;28;20538;-79
2021/10/01 03:52:41;;;;;;;1999.90;999.90;;;12.30;99.90;;;;;;5082348;28;20455;-78
2021/10/01 03:55:18;;;;;;;1999.90;999.90;;;12.30;99.90;;;;;;5081714;28;20433;-79
2021/10/01 03:57:50;;;;;;;1999.90;999.90;;;12.30;99.90;;;;;;5082198;28;20523;-78
2021/10/01 04:00:20;;;;;;;1999.90;999.90;;;12.20;99.90;;;;;;5082204;28;20534;-78
2021/10/01 04:02:48;;;;;;;1999.90;999.90;;;12.20;99.90;;;;;;5082305;28;20517;-79
2021/10/01 04:05:20;;;;;;;1999.90;999.90;;;12.20;99.90;;;;;;5082156;28;20452;-79
2021/10/01 04:07:50;;;;;;;1999.90;999.90;;;12.20;99.90;;;;;;5081597;28;20441;-79
2021/10/01 04:10:18;;;;;;;1999.90;999.90;;;12.20;99.90;;;;;;5081666;28;20961;-79
2021/10/01 04:12:47;;;;;;;1999.90;999.90;;;12.20;99.90;;;;;;5081919;28;20449;-79
2021/10/01 04:15:25;;;;;;;1999.90;999.90;;;12.10;99.90;;;;;;5082095;28;20455;-78
2021/10/01 04:17:54;;;;;;;1999.90;999.90;;;12.10;99.90;;;;;;5082405;28;20451;-79
2021/10/01 04:20:22;;;;;;;1999.90;999.90;;;12.10;99.90;;;;;;5081398;28;20447;-79
2021/10/01 04:22:52;;;;;;;1999.90;847.13;;;12.10;99.90;;;;;;5081806;28;20651;-79
2021/10/01 04:25:58;;;;;;;1999.90;999.90;;;12.10;99.90;;;;;;5017335;28;20944;-79
2021/10/01 04:28:27;;;;;;;1999.90;936.57;;;12.10;99.90;;;;;;5001165;28;20220;-79
2021/10/01 04:31:01;;;;;;;1999.90;999.90;;;12.10;99.90;;;;;;5043402;28;20847;-79
2021/10/01 04:33:33;;;;;;;1999.90;999.90;;;12.00;99.90;;;;;;5082166;28;20444;-79
2021/10/01 04:36:03;;;;;;;1999.90;999.90;;;12.10;99.90;;;;;;5082293;28;20560;-79
2021/10/01 04:38:32;;;;;;;1999.90;999.90;;;12.00;99.90;;;;;;5082052;28;20965;-78
2021/10/01 04:41:01;;;;;;;1999.90;999.90;;;12.00;99.90;;;;;;5099609;28;20531;-79
2021/10/01 04:43:30;;;;;;;1999.90;999.90;;;12.00;99.90;;;;;;5081530;28;20455;-79
2021/10/01 04:46:18;;;;;;;1999.90;999.90;;;12.00;99.90;;;;;;5098904;28;20475;-79
2021/10/01 04:48:47;;;;;;;1999.90;999.90;;;12.00;99.90;;;;;;5081606;28;20535;-79
2021/10/01 04:51:22;;;;;;;1999.90;999.90;;;12.00;99.90;;;;;;5082039;28;20444;-79
2021/10/01 04:53:52;;;;;;;1999.90;999.90;;;12.00;99.90;;;;;;5081211;28;20462;-79
2021/10/01 04:56:21;;;;;;;1999.90;999.90;;;12.00;99.90;;;;;;5081621;28;20475;-79
2021/10/01 04:58:50;;;;;;;1999.90;999.90;;;12.00;99.90;;;;;;5081763;28;20539;-79
2021/10/01 05:01:50;;;;;;;1999.90;999.90;;;12.00;99.90;;;;;;5099721;28;20457;-79
2021/10/01 05:04:39;;;;;;;1999.90;999.90;;;12.00;99.90;;;;;;5098897;28;20489;-79
2021/10/01 05:07:21;;;;;;;1999.90;999.90;;;12.00;99.90;;;;;;5080906;28;20586;-79
2021/10/01 05:10:11;;;;;;;1999.90;999.90;;;12.00;99.90;;;;;;5098962;28;20463;-79
2021/10/01 05:12:58;;;;;;;1999.90;999.90;;;12.00;99.90;;;;;;5098194;28;20186;-79
2021/10/01 05:15:48;;;;;;;1999.90;999.90;;;12.00;99.90;;;;;;5098772;28;20471;-78
2021/10/01 05:18:35;;;;;;;1999.90;999.90;;;12.00;99.90;;;;;;5098063;28;20431;-78
2021/10/01 05:21:21;;;;;;;1999.90;999.90;;;12.00;99.90;;;;;;5098009;28;20450;-79
2021/10/01 05:23:58;;;;;;;1999.90;999.90;;;12.00;99.90;;;;;;5080082;28;20443;-79
2021/10/01 05:26:27;;;;;;;1999.90;999.90;;;11.90;99.90;;;;;;5079794;28;20529;-78
2021/10/01 05:28:56;;;;;;;1999.90;999.90;;;12.00;99.90;;;;;;5098362;28;20436;-79
2021/10/01 05:31:25;;;;;;;1999.90;999.90;;;12.00;99.90;;;;;;5079593;28;20464;-79
2021/10/01 05:33:53;;;;;;;1999.90;999.90;;;12.00;99.90;;;;;;5080298;28;20448;-79
2021/10/01 05:36:21;;;;;;;1999.90;999.90;;;12.00;99.90;;;;;;5079743;28;20471;-79
2021/10/01 05:38:50;;;;;;;1999.90;999.90;;;12.00;99.90;;;;;;5080234;28;20482;-79
2021/10/01 05:41:19;;;;;;;1999.90;999.90;;;12.00;99.90;;;;;;5080144;28;20522;-79
2021/10/01 05:43:49;;;;;;;1999.90;999.90;;;12.00;99.90;;;;;;5079418;28;20444;-78
2021/10/01 05:46:18;;;;;;;1999.90;999.90;;;12.00;99.90;;;;;;5080381;28;20895;-80
2021/10/01 05:49:21;;;;;;;1999.90;863.92;;;12.00;99.90;;;;;;5097008;28;20574;-79
2021/10/01 05:55:19;;;;;;;1999.90;915.75;;;12.10;99.90;;;;;;5090195;28;20431;-79
2021/10/01 05:58:06;;;;;;;1999.90;976.53;;;12.10;99.90;;;;;;5096916;28;20186;-79
2021/10/01 06:00:45;;;;;;;1999.90;999.90;;;12.10;99.90;;;;;;5078838;28;20448;-79
2021/10/01 06:03:13;;;;;;;1999.90;999.90;;;12.10;99.90;;;;;;5080479;28;20452;-79
2021/10/01 06:05:41;;;;;;;1999.90;999.90;;;12.00;99.90;;;;;;5079920;28;20981;-79
2021/10/01 06:08:10;;;;;;;1999.90;999.90;;;12.10;99.90;;;;;;5080282;28;20817;-79
2021/10/01 06:10:38;;;;;;;1999.90;999.90;;;12.10;99.90;;;;;;5079866;28;20444;-79
2021/10/01 06:13:06;;;;;;;1999.90;999.90;;;12.10;99.90;;;;;;5080318;28;20486;-79
2021/10/01 06:15:34;;;;;;;1999.90;999.90;;;12.10;99.90;;;;;;5097470;28;20527;-79
2021/10/01 06:18:04;;;;;;;1999.90;999.90;;;12.10;99.90;;;;;;5079297;28;20532;-78
2021/10/01 06:20:32;;;;;;;1999.90;999.90;;;12.10;99.90;;;;;;5078292;28;20483;-79
2021/10/01 06:23:01;;;;;;;1999.90;999.90;;;12.10;99.90;;;;;;5078530;28;20444;-79
2021/10/01 06:25:29;;;;;;;1999.90;999.90;;;12.10;99.90;;;;;;5078750;28;20468;-79
2021/10/01 06:27:57;;;;;;;1999.90;999.90;;;12.20;99.90;;;;;;5079175;28;20463;-80
2021/10/01 06:30:25;;;;;;;1999.90;999.90;;;12.20;99.90;;;;;;5098154;28;20452;-79
2021/10/01 06:32:54;;;;;;;1999.90;999.90;;;12.20;99.90;;;;;;5080909;28;20462;-79
2021/10/01 06:35:23;;;;;;;1999.90;999.90;;;12.20;99.90;;;;;;5096947;28;20437;-79
2021/10/01 06:37:51;;;;;;;1999.90;946.87;;;12.30;99.90;;;;;;5080275;28;20236;-79
2021/10/01 06:40:20;;;;;;;1999.90;789.28;;;12.30;99.90;;;;;;5096945;28;20490;-79
2021/10/01 06:42:49;;;;;;;1999.90;864.73;;;12.40;99.90;;;;;;5080500;28;20451;-79
2021/10/01 06:45:23;;;;;;;1999.90;604.43;;;12.40;99.90;;;;;;5080571;28;20540;-79
2021/10/01 06:48:07;;;;;;;1999.90;999.90;;;12.40;99.90;;;;;;5098802;28;20511;-79
2021/10/01 08:19:29;;;;;;;3.00;1.67;;;14.30;99.90;;;;;;5019914;28;20478;-78
2021/10/01 08:22:00;;;;;;;5.10;1.60;;;14.40;99.90;;;;;;5067177;28;20440;-78
2021/10/01 08:24:29;;;;;;;4.60;1.77;;;14.50;99.90;;;;;;5099135;28;20517;-78
2021/10/01 08:26:58;;;;;;;3.30;1.53;;;14.60;99.90;;;;;;5080423;28;20483;-78
2021/10/01 08:29:28;;;;;;;5.60;2.20;;;14.70;99.90;;;;;;5078818;28;20470;-78
2021/10/01 08:32:00;;;;;;;4.97;2.20;;;14.80;99.90;;;;;;5079635;28;20562;-78
2021/10/01 08:34:29;;;;;;;5.57;1.90;;;14.80;99.90;;;;;;5079998;28;20436;-78
2021/10/01 08:36:57;;;;;;;5.67;1.70;;;14.90;99.90;;;;;;5080181;28;20470;-78
2021/10/01 08:39:26;;;;;;;6.50;1.83;;;15.00;99.90;;;;;;5097869;28;20460;-77
2021/10/01 08:41:55;;;;;;;4.97;1.80;;;15.00;99.90;;;;;;5080339;28;20452;-78
2021/10/01 08:44:26;;;;;;;5.60;2.10;;;15.10;99.90;;;;;;5097834;28;20462;-78
2021/10/01 08:46:55;;;;;;;1999.90;924.43;;;15.10;99.90;;;;;;5097250;28;20487;-78
2021/10/01 08:49:26;;;;;;;7.67;5.17;;;15.20;99.90;;;;;;5080137;28;20458;-78
2021/10/01 08:51:54;;;;;;;46.28;42.10;;;15.30;99.90;;;;;;5080023;28;20448;-78
2021/10/01 08:54:24;;;;;;;4.63;1.77;;;15.40;99.90;;;;;;5079946;28;20199;-78
2021/10/01 08:56:53;;;;;;;5.67;1.53;;;15.50;99.90;;;;;;5097679;28;21047;-79
2021/10/01 08:59:21;;;;;;;4.77;1.70;;;15.50;99.90;;;;;;5080197;28;20423;-79
2021/10/01 09:01:49;;;;;;;6.40;2.40;;;15.60;99.90;;;;;;5080412;28;20539;-79
2021/10/01 09:04:19;;;;;;;4.57;1.73;;;15.70;99.90;;;;;;5097478;28;20445;-79
2021/10/01 09:06:49;;;;;;;3.90;1.67;;;15.80;99.90;;;;;;5078875;28;20520;-78
2021/10/01 09:09:20;;;;;;;5.20;2.93;;;15.80;99.90;;;;;;5097185;28;20444;-78
2021/10/01 09:11:48;;;;;;;5.17;2.30;;;15.90;99.90;;;;;;5097392;28;20957;-78
2021/10/01 09:14:22;;;;;;;4.47;1.70;;;15.80;99.90;;;;;;5078542;28;20440;-79
2021/10/01 09:16:50;;;;;;;4.47;1.73;;;15.80;99.90;;;;;;5079223;28;20464;-78
2021/10/01 09:19:20;;;;;;;4.27;1.90;;;15.90;99.90;;;;;;5079062;28;20472;-78
2021/10/01 09:21:51;;;;;;;4.80;1.50;;;15.90;99.90;;;;;;5079516;28;20445;-78
2021/10/01 09:24:25;;;;;;;4.03;1.63;;;16.00;99.90;;;;;;5097687;28;20444;-78
2021/10/01 09:26:55;;;;;;;4.67;1.80;;;16.00;99.90;;;;;;5078969;28;20507;-79
2021/10/01 09:29:26;;;;;;;1844.43;577.45;;;16.00;99.90;;;;;;5078148;28;20434;-78
2021/10/01 09:31:56;;;;;;;3.83;1.60;;;16.10;99.90;;;;;;5096243;28;20202;-78
2021/10/01 09:34:43;;;;;;;134.57;97.77;;;16.10;99.90;;;;;;5096290;28;20515;-78
2021/10/01 09:37:13;;;;;;;5.00;1.73;;;16.20;99.90;;;;;;5079549;28;20439;-78
2021/10/01 09:39:45;;;;;;;4.53;1.50;;;16.20;99.90;;;;;;5098432;28;20444;-78
2021/10/01 09:42:17;;;;;;;5.03;1.70;;;16.30;99.90;;;;;;5079606;28;20445;-78
2021/10/01 09:44:48;;;;;;;5.97;1.87;;;16.40;99.90;;;;;;5098088;28;20429;-79
2021/10/01 09:47:18;;;;;;;8.60;3.43;;;16.50;99.90;;;;;;5079269;28;20471;-78
2021/10/01 09:49:57;;;;;;;4.40;1.60;;;16.50;99.90;;;;;;5078359;28;20792;-78
2021/10/01 09:52:25;;;;;;;7.87;1.77;;;16.60;99.90;;;;;;5079657;28;20448;-78
2021/10/01 09:55:05;;;;;;;6.17;1.57;;;16.60;99.90;;;;;;5078735;28;20927;-79
2021/10/01 09:57:36;;;;;;;4.70;1.70;;;16.70;99.90;;;;;;5078900;28;20563;-79
2021/10/01 10:00:06;;;;;;;5.00;1.63;;;16.70;99.90;;;;;;5097381;28;20411;-78
2021/10/01 10:02:39;;;;;;;5.10;1.60;;;16.70;99.90;;;;;;5096997;28;20417;-78
2021/10/01 10:05:09;;;;;;;8.95;8.05;;;16.70;99.90;;;;;;5095829;28;20432;-79
2021/10/01 10:07:40;;;;;;;6.07;2.37;;;16.80;99.90;;;;;;5079181;28;20611;-78
2021/10/01 10:10:10;;;;;;;5.27;1.87;;;16.90;99.90;;;;;;5096772;28;20799;-79
2021/10/01 10:12:41;;;;;;;4.87;1.47;;;16.90;99.90;;;;;;5096840;28;20451;-78
2021/10/01 10:15:13;;;;;;;5.90;1.80;;;16.90;99.90;;;;;;5097254;28;20918;-78
2021/10/01 10:17:48;;;;;;;4.80;1.73;;;16.90;99.90;;;;;;5079981;28;20408;-79
2021/10/01 10:20:19;;;;;;;3.87;1.20;;;17.00;99.90;;;;;;5097895;28;20808;-79
2021/10/01 10:22:48;;;;;;;7.00;1.83;;;17.00;99.90;;;;;;5078536;28;21010;-78
2021/10/01 10:25:16;;;;;;;4.27;1.83;;;17.00;99.90;;;;;;5079467;28;20454;-79
2021/10/01 10:27:44;;;;;;;4.50;2.10;;;17.10;99.90;;;;;;5079018;28;20447;-78
2021/10/01 10:30:14;;;;;;;5.57;2.03;;;17.10;99.90;;;;;;5078032;28;20419;-77
2021/10/01 10:32:42;;;;;;;6.30;2.47;;;17.10;99.90;;;;;;5077904;28;20442;-78
2021/10/01 10:35:11;;;;;;;6.13;1.60;;;17.20;99.90;;;;;;5077946;28;20427;-78
2021/10/01 10:37:43;;;;;;;6.37;2.00;;;17.20;99.90;;;;;;5078071;28;20765;-78
2021/10/01 10:40:14;;;;;;;5.10;2.47;;;17.30;99.90;;;;;;5079015;28;20425;-78
2021/10/01 10:42:44;;;;;;;4.37;1.60;;;17.30;99.90;;;;;;5078434;28;20446;-78
2021/10/01 10:45:21;;;;;;;5.38;1.90;;;17.40;99.90;;;;;;5076369;28;20448;-78
2021/10/01 10:47:58;;;;;;;7.57;1.73;;;17.40;99.50;;;;;;5096455;28;20243;-78
2021/10/01 10:50:34;;;;;;;6.43;2.63;;;17.50;99.50;;;;;;5077442;28;20448;-78
2021/10/01 10:53:28;;;;;;;5.93;2.90;;;17.50;99.40;;;;;;5095991;28;20170;-78
2021/10/01 10:56:15;;;;;;;4.43;1.87;;;17.50;99.50;;;;;;5077905;28;20450;-77
2021/10/01 10:58:46;;;;;;;4.10;1.40;;;17.60;99.60;;;;;;5077561;28;20435;-78
2021/10/01 11:01:43;;;;;;;5.47;1.90;;;17.60;99.70;;;;;;5095854;28;20884;-78
2021/10/01 11:04:37;;;;;;;4.70;1.90;;;17.60;99.80;;;;;;5077943;28;20422;-78
2021/10/01 11:07:09;;;;;;;4.30;1.80;;;17.60;99.90;;;;;;5077263;28;20529;-77
2021/10/01 11:09:40;;;;;;;6.13;2.03;;;17.70;99.90;;;;;;5095782;28;20478;-78
2021/10/01 11:12:28;;;;;;;6.13;1.70;;;17.70;99.70;;;;;;5077792;28;20454;-78
2021/10/01 11:15:17;;;;;;;3.87;1.73;;;17.80;99.60;;;;;;5077177;28;20506;-78
2021/10/01 11:18:14;;;;;;;5.80;1.30;;;17.80;99.70;;;;;;5076888;28;20484;-78
2021/10/01 11:20:42;;;;;;;4.70;2.00;;;17.80;99.80;;;;;;5076790;28;20443;-78
2021/10/01 11:23:17;;;;;;;5.60;1.70;;;17.80;99.80;;;;;;5094420;28;20436;-77
2021/10/01 11:25:48;;;;;;;6.87;1.60;;;17.90;99.40;;;;;;5078319;28;20472;-78
2021/10/01 11:28:17;;;;;;;3.80;1.70;;;17.90;99.40;;;;;;5077614;28;20467;-77
2021/10/01 11:30:53;;;;;;;11.77;4.37;;;18.00;99.50;;;;;;5076508;28;20467;-78
2021/10/01 11:33:21;;;;;;;6.67;2.57;;;18.00;99.60;;;;;;5077014;28;20422;-78
2021/10/01 11:35:54;;;;;;;4.63;1.60;;;18.00;99.60;;;;;;5078174;28;20442;-78
2021/10/01 11:38:29;;;;;;;6.27;2.23;;;18.00;99.60;;;;;;5075907;28;20442;-77
2021/10/01 11:41:08;;;;;;;5.73;1.97;;;18.00;99.50;;;;;;5077552;28;20519;-78
2021/10/01 11:43:54;;;;;;;6.60;1.60;;;18.10;99.50;;;;;;5077155;28;20499;-78
2021/10/01 11:46:32;;;;;;;5.80;1.53;;;18.10;99.60;;;;;;5094861;28;20434;-78
2021/10/01 11:49:03;;;;;;;4.50;1.70;;;18.10;99.60;;;;;;5076536;28;20460;-78
2021/10/01 11:51:33;;;;;;;5.00;1.43;;;18.20;99.70;;;;;;5078372;28;20410;-78
2021/10/01 11:54:09;;;;;;;7.20;2.07;;;18.30;99.80;;;;;;5077084;28;20466;-79
2021/10/01 11:56:39;;;;;;;4.28;1.60;;;18.30;99.60;;;;;;5098386;28;20411;-78
2021/10/01 11:59:08;;;;;;;2.70;1.20;;;18.40;99.30;;;;;;5080600;28;20194;-77
2021/10/01 12:01:36;;;;;;;2.70;1.37;;;18.50;99.20;;;;;;5080318;28;20448;-78
2021/10/01 12:04:05;;;;;;;4.33;1.70;;;18.50;99.20;;;;;;5098694;28;20464;-78
2021/10/01 12:06:36;;;;;;;3.40;1.33;;;18.60;99.00;;;;;;5098862;28;20466;-78
2021/10/01 12:09:06;;;;;;;4.30;1.63;;;18.60;99.00;;;;;;5099225;28;20459;-78
2021/10/01 12:11:37;;;;;;;4.20;2.17;;;18.60;98.90;;;;;;5099928;28;20943;-78
2021/10/01 12:14:12;;;;;;;4.70;1.97;;;18.60;98.90;;;;;;5098782;28;20446;-78
2021/10/01 12:16:42;;;;;;;3.50;1.57;;;18.60;98.70;;;;;;5099063;28;20468;-78
2021/10/01 12:19:10;;;;;;;5.03;2.07;;;18.60;98.70;;;;;;5080369;28;20452;-78
2021/10/01 12:21:38;;;;;;;6.60;1.80;;;18.60;98.70;;;;;;5080305;28;20429;-78
2021/10/01 12:24:11;;;;;;;3.50;1.70;;;18.70;98.70;;;;;;5080849;28;20487;-78
2021/10/01 12:26:41;;;;;;;4.73;1.17;;;18.70;98.70;;;;;;5081090;28;20431;-78
2021/10/01 12:29:17;;;;;;;3.90;1.40;;;18.80;98.70;;;;;;5098157;28;20516;-79
2021/10/01 12:31:48;;;;;;;5.40;2.07;;;18.90;98.50;;;;;;5080248;28;20489;-78
2021/10/01 12:34:20;;;;;;;4.67;1.97;;;19.00;98.40;;;;;;5080635;28;20430;-78
2021/10/01 12:36:51;;;;;;;4.40;1.60;;;19.00;98.40;;;;;;5078701;28;20502;-78
2021/10/01 12:39:22;;;;;;;3.00;1.10;;;19.10;97.60;;;;;;5079936;28;20213;-78
2021/10/01 12:41:57;;;;;;;5.07;1.70;;;19.10;97.80;;;;;;5099483;28;20427;-78
2021/10/01 12:44:28;;;;;;;6.63;2.17;;;19.10;98.00;;;;;;5079242;28;20470;-78
2021/10/01 12:47:11;;;;;;;4.60;1.40;;;19.10;98.00;;;;;;5096886;28;20464;-77
2021/10/01 12:49:40;;;;;;;4.73;1.30;;;19.10;97.90;;;;;;5095622;28;20456;-77
2021/10/01 12:52:12;;;;;;;3.37;1.50;;;19.00;97.90;;;;;;5077359;28;20945;-77
2021/10/01 12:54:46;;;;;;;5.60;1.43;;;19.00;97.90;;;;;;5077512;28;20472;-77
2021/10/01 12:57:21;;;;;;;4.67;1.60;;;19.00;98.00;;;;;;5077536;28;20517;-77
2021/10/01 12:59:53;;;;;;;4.50;1.40;;;18.90;98.00;;;;;;5095280;28;20415;-77
2021/10/01 13:02:23;;;;;;;3.53;1.70;;;18.90;98.20;;;;;;5077245;28;20587;-77
2021/10/01 13:04:57;;;;;;;6.70;1.77;;;18.90;98.30;;;;;;5096652;28;20517;-77
2021/10/01 13:07:34;;;;;;;3.40;1.40;;;18.90;98.40;;;;;;5079357;28;20488;-78
2021/10/01 13:10:24;;;;;;;6.10;2.80;;;18.90;98.40;;;;;;5077614;28;20451;-78
2021/10/01 13:12:55;;;;;;;4.37;1.83;;;18.90;98.40;;;;;;5079929;28;20590;-78
2021/10/01 13:15:31;;;;;;;4.73;1.53;;;18.90;98.40;;;;;;5078898;28;20497;-77
2021/10/01 13:18:06;;;;;;;6.40;2.50;;;18.80;98.50;;;;;;5078669;28;20419;-78
2021/10/01 13:20:37;;;;;;;6.10;2.00;;;18.80;98.60;;;;;;5078144;28;20435;-77
2021/10/01 13:23:08;;;;;;;3.70;1.53;;;18.70;98.60;;;;;;5077992;28;20765;-78
2021/10/01 13:25:38;;;;;;;4.97;1.63;;;18.70;98.70;;;;;;5078742;28;20470;-77
2021/10/01 13:28:07;;;;;;;7.53;1.60;;;18.70;98.70;;;;;;5096195;28;20464;-77
2021/10/01 13:30:36;;;;;;;3.10;1.33;;;18.70;98.70;;;;;;5077528;28;21029;-77
2021/10/01 13:33:06;;;;;;;9.40;1.90;;;18.70;98.80;;;;;;5077929;28;20479;-77
2021/10/01 13:35:37;;;;;;;4.70;1.77;;;18.70;98.90;;;;;;5077712;28;20442;-78
2021/10/01 13:38:06;;;;;;;6.50;1.57;;;18.70;98.80;;;;;;5096890;28;20444;-78
2021/10/01 13:40:36;;;;;;;4.90;1.80;;;18.70;98.70;;;;;;5076820;28;20927;-78
2021/10/01 13:43:05;;;;;;;5.23;1.70;;;18.70;98.40;;;;;;5077456;28;20194;-77
2021/10/01 13:45:33;;;;;;;3.73;1.40;;;18.70;98.40;;;;;;5077662;28;20471;-78
2021/10/01 13:48:03;;;;;;;7.93;3.20;;;18.70;98.50;;;;;;5094197;28;20439;-77
2021/10/01 13:50:32;;;;;;;3.80;1.60;;;18.70;98.10;;;;;;5096052;28;20241;-77
2021/10/01 13:53:00;;;;;;;2.60;1.10;;;18.70;98.10;;;;;;5077753;28;20455;-78
2021/10/01 13:55:28;;;;;;;6.17;1.80;;;18.70;98.20;;;;;;5095297;28;20448;-77
2021/10/01 13:57:56;;;;;;;4.27;1.60;;;18.70;98.30;;;;;;5077513;28;20426;-77
2021/10/01 14:00:26;;;;;;;5.97;2.00;;;18.70;98.30;;;;;;5095539;28;20441;-77
2021/10/01 14:02:54;;;;;;;5.90;1.97;;;18.70;98.30;;;;;;5095284;28;20409;-77
2021/10/01 14:05:24;;;;;;;4.13;1.90;;;18.60;98.30;;;;;;5076951;28;20414;-78
2021/10/01 14:07:52;;;;;;;4.33;1.90;;;18.70;98.30;;;;;;5077087;28;20492;-77
2021/10/01 14:10:24;;;;;;;7.60;1.87;;;18.70;98.30;;;;;;5094692;28;21023;-77
2021/10/01 14:12:53;;;;;;;7.30;4.67;;;18.70;98.30;;;;;;5076724;28;20479;-77
2021/10/01 14:15:24;;;;;;;6.07;2.90;;;18.70;98.30;;;;;;5076581;28;20427;-77
2021/10/01 14:17:52;;;;;;;4.38;1.83;;;18.70;98.30;;;;;;5075340;28;20435;-77
2021/10/01 14:20:24;;;;;;;4.23;1.40;;;18.80;98.20;;;;;;5095279;28;20265;-77